| time (UTC) | temp F | wind direction | speed MPH | gust MPH | rain 1hr in | rain 24hr in | rain mn in | humidity % | barometer mb |
| 20260504204238 | 76 | 191 | 4.0 | 7.0 | 0.00 | 0.00 | 0.00 | 38 | 1016.3 |
| 20260504203737 | 76 | 24 | 2.0 | 7.0 | 0.00 | 0.00 | 0.00 | 40 | 1016.6 |
| 20260504202228 | 76 | 188 | 4.0 | 7.0 | 0.00 | 0.00 | 0.00 | 38 | 1016.6 |
| 20260504201223 | 76 | 177 | 6.0 | 9.0 | 0.00 | 0.00 | 0.00 | 39 | 1016.6 |
| 20260504200217 | 76 | 205 | 3.0 | 9.0 | 0.00 | 0.00 | 0.00 | 38 | 1017.0 |
| 20260504195715 | 77 | 217 | 0.0 | 13.0 | 0.00 | 0.00 | 0.00 | 38 | 1017.0 |
| 20260504194215 | 76 | 161 | 0.0 | 6.0 | 0.00 | 0.00 | 0.00 | 39 | 1017.0 |
| 20260504193210 | 76 | 188 | 4.0 | 10.0 | 0.00 | 0.00 | 0.00 | 39 | 1017.3 |
| 20260504192204 | 77 | 203 | 2.0 | 10.0 | 0.00 | 0.00 | 0.00 | 39 | 1017.3 |
| 20260504191202 | 77 | 202 | 6.0 | 8.0 | 0.00 | 0.00 | 0.00 | 39 | 1017.3 |
| 20260504190153 | 77 | 183 | 2.0 | 7.0 | 0.00 | 0.00 | 0.00 | 40 | 1017.6 |
| 20260504185149 | 78 | 185 | 4.0 | 10.0 | 0.00 | 0.00 | 0.00 | 40 | 1017.6 |
| 20260504184141 | 76 | 84 | 0.0 | 9.0 | 0.00 | 0.00 | 0.00 | 41 | 1017.6 |
| 20260504183136 | 76 | 191 | 2.0 | 8.0 | 0.00 | 0.00 | 0.00 | 42 | 1017.6 |
| 20260504182638 | 76 | 212 | 3.0 | 8.0 | 0.00 | 0.00 | 0.00 | 40 | 1018.0 |
| 20260504181133 | 76 | 229 | 0.0 | 7.0 | 0.00 | 0.00 | 0.00 | 43 | 1018.0 |
| 20260504180125 | 76 | 202 | 4.0 | 8.0 | 0.00 | 0.00 | 0.00 | 43 | 1018.0 |
| 20260504175123 | 76 | 211 | 4.0 | 14.0 | 0.00 | 0.00 | 0.00 | 41 | 1018.0 |
| 20260504174116 | 75 | 190 | 6.0 | 8.0 | 0.00 | 0.00 | 0.00 | 42 | 1018.0 |
| 20260504173113 | 75 | 184 | 4.0 | 8.0 | 0.00 | 0.00 | 0.00 | 41 | 1018.3 |
| 20260504172106 | 75 | 178 | 4.0 | 10.0 | 0.00 | 0.00 | 0.00 | 40 | 1018.3 |
| 20260504171604 | 76 | 203 | 3.0 | 8.0 | 0.00 | 0.00 | 0.00 | 39 | 1018.3 |
| 20260504151008 | 74 | 177 | 4.0 | 8.0 | 0.00 | 0.00 | 0.00 | 40 | 1018.6 |
| 20260504150503 | 76 | 179 | 3.0 | 8.0 | 0.00 | 0.00 | 0.00 | 39 | 1018.6 |
| 20260504140940 | 71 | 318 | 2.0 | 4.0 | 0.00 | 0.00 | 0.00 | 55 | 1019.0 |
| 20260504081658 | 62 | 316 | 0.0 | 2.0 | 0.00 | 0.00 | 0.00 | 72 | 1018.0 |
| 20260504080655 | 62 | 281 | 0.0 | 0.0 | 0.00 | 0.00 | 0.00 | 72 | 1018.0 |
| 20260504050533 | 64 | 29 | 1.0 | 3.0 | 0.00 | 0.00 | 0.00 | 67 | 1020.0 |
| 20260504045529 | 65 | 354 | 2.0 | 3.0 | 0.00 | 0.00 | 0.00 | 66 | 1020.0 |
| 20260504044525 | 65 | 307 | 0.0 | 4.0 | 0.00 | 0.00 | 0.00 | 64 | 1020.0 |
| 20260504044022 | 65 | 175 | 0.0 | 2.0 | 0.00 | 0.00 | 0.00 | 61 | 1020.0 |
| 20260504042515 | 65 | 299 | 0.0 | 1.0 | 0.00 | 0.00 | 0.00 | 60 | 1020.0 |
| 20260504041509 | 65 | 207 | 0.0 | 1.0 | 0.00 | 0.00 | 0.00 | 61 | 1020.0 |
| 20260504040506 | 66 | 272 | 0.0 | 1.0 | 0.00 | 0.00 | 0.00 | 60 | 1020.0 |
| 20260504035459 | 66 | 178 | 0.0 | 2.0 | 0.00 | 0.00 | 0.00 | 60 | 1020.0 |
| 20260504034458 | 66 | 246 | 0.0 | 1.0 | 0.00 | 0.00 | 0.00 | 59 | 1020.0 |
| 20260504033448 | 66 | 184 | 1.0 | 2.0 | 0.00 | 0.00 | 0.00 | 58 | 1020.0 |
| 20260504032448 | 67 | 230 | 0.0 | 2.0 | 0.00 | 0.00 | 0.00 | 57 | 1020.0 |
| 20260504031440 | 67 | 263 | 1.0 | 3.0 | 0.00 | 0.00 | 0.00 | 55 | 1020.0 |
| 20260504030438 | 67 | 180 | 0.0 | 2.0 | 0.00 | 0.00 | 0.00 | 54 | 1020.0 |
| 20260504025431 | 68 | 175 | 0.0 | 3.0 | 0.00 | 0.00 | 0.00 | 52 | 1020.0 |
| 20260504024429 | 68 | 176 | 1.0 | 4.0 | 0.00 | 0.00 | 0.00 | 51 | 1019.7 |
| 20260504023423 | 68 | 240 | 0.0 | 2.0 | 0.00 | 0.00 | 0.00 | 51 | 1019.7 |
| 20260504022420 | 68 | 234 | 0.0 | 2.0 | 0.00 | 0.00 | 0.00 | 51 | 1019.7 |
| 20260504021414 | 69 | 165 | 2.0 | 3.0 | 0.00 | 0.00 | 0.00 | 50 | 1019.7 |
| 20260504020412 | 69 | 187 | 0.0 | 3.0 | 0.00 | 0.00 | 0.00 | 49 | 1019.7 |
| 20260504015405 | 69 | 178 | 2.0 | 6.0 | 0.00 | 0.00 | 0.00 | 48 | 1019.3 |
| 20260504014403 | 70 | 299 | 0.0 | 2.0 | 0.00 | 0.00 | 0.00 | 47 | 1019.3 |
| 20260504013857 | 70 | 207 | 1.0 | 2.0 | 0.00 | 0.00 | 0.00 | 46 | 1019.3 |
| 20260504012353 | 71 | 185 | 1.0 | 4.0 | 0.00 | 0.00 | 0.00 | 45 | 1019.3 |
| 20260504010345 | 72 | 322 | 0.0 | 3.0 | 0.00 | 0.00 | 0.00 | 41 | 1019.0 |
| 20260504005838 | 72 | 344 | 2.0 | 3.0 | 0.00 | 0.00 | 0.00 | 41 | 1019.0 |
| 20260504004836 | 72 | 316 | 0.0 | 1.0 | 0.00 | 0.00 | 0.00 | 41 | 1019.0 |
| 20260504003329 | 72 | 335 | 1.0 | 3.0 | 0.00 | 0.00 | 0.00 | 41 | 1019.0 |
| 20260504002326 | 72 | 327 | 0.0 | 6.0 | 0.00 | 0.00 | 0.00 | 41 | 1018.6 |
| 20260504001320 | 73 | 322 | 2.0 | 8.0 | 0.00 | 0.00 | 0.00 | 40 | 1018.6 |
| 20260504000318 | 73 | 338 | 3.0 | 3.0 | 0.00 | 0.00 | 0.00 | 40 | 1018.6 |
| 20260503235311 | 73 | 318 | 1.0 | 4.0 | 0.00 | 0.00 | 0.00 | 40 | 1018.6 |
| 20260503234308 | 73 | 10 | 0.0 | 7.0 | 0.00 | 0.00 | 0.00 | 40 | 1018.6 |
| 20260503233803 | 73 | 322 | 2.0 | 6.0 | 0.00 | 0.00 | 0.00 | 39 | 1018.6 |
| 20260503232259 | 72 | 33 | 1.0 | 8.0 | 0.00 | 0.00 | 0.00 | 39 | 1019.0 |
| 20260503231254 | 73 | 328 | 1.0 | 7.0 | 0.00 | 0.00 | 0.00 | 39 | 1019.0 |
| 20260503230250 | 73 | 330 | 0.0 | 4.0 | 0.00 | 0.00 | 0.00 | 39 | 1018.6 |
| 20260503225244 | 73 | 316 | 1.0 | 4.0 | 0.00 | 0.00 | 0.00 | 38 | 1019.0 |
| 20260503224241 | 73 | 287 | 2.0 | 8.0 | 0.00 | 0.00 | 0.00 | 38 | 1019.0 |
| 20260503223234 | 73 | 311 | 2.0 | 6.0 | 0.00 | 0.00 | 0.00 | 37 | 1019.3 |
| 20260503222232 | 73 | 324 | 2.0 | 4.0 | 0.00 | 0.00 | 0.00 | 37 | 1019.3 |
| 20260503221221 | 73 | 349 | 2.0 | 8.0 | 0.00 | 0.00 | 0.00 | 37 | 1019.0 |
| 20260503220219 | 73 | 177 | 2.0 | 11.0 | 0.00 | 0.00 | 0.00 | 38 | 1019.0 |
| 20260503215220 | 73 | 335 | 6.0 | 9.0 | 0.00 | 0.00 | 0.00 | 37 | 1019.3 |
| 20260503214718 | 73 | 306 | 1.0 | 9.0 | 0.00 | 0.00 | 0.00 | 37 | 1019.3 |
| 20260503213211 | 73 | 262 | 1.0 | 8.0 | 0.00 | 0.00 | 0.00 | 36 | 1019.7 |
| 20260503212208 | 73 | 341 | 6.0 | 9.0 | 0.00 | 0.00 | 0.00 | 35 | 1020.0 |
| 20260503210659 | 73 | 30 | 2.0 | 10.0 | 0.00 | 0.00 | 0.00 | 32 | 1020.3 |
| 20260503205652 | 73 | 298 | 1.0 | 10.0 | 0.00 | 0.00 | 0.00 | 35 | 1020.3 |